Time;durP1;ratioP1;P1;durP2;ratioP2;P2;SDS_P1;SDS_P2;PMS_P1;PMS_P2;Temp;Humidity;BMP_temperature;BMP_pressure;BME280_temperature;BME280_humidity;BME280_pressure;Samples;Min_cycle;Max_cycle;Signal;HPM_P1;HPM_P2
2024/04/08 00:02:05;;;;;;;18.50;10.60;;;;;;;11.15;75.06;101375.35;108119;1260;66696;-68
2024/04/08 00:04:32;;;;;;;17.40;10.40;;;;;;;11.15;75.13;101376.21;108155;1260;138927;-63
2024/04/08 00:06:59;;;;;;;26.40;15.80;;;;;;;11.13;75.05;101370.36;108618;1260;59556;-64
2024/04/08 00:09:25;;;;;;;20.10;11.90;;;;;;;11.11;75.01;101362.73;108687;1260;139665;-63
2024/04/08 00:11:52;;;;;;;17.10;11.20;;;;;;;11.07;75.04;101363.86;108617;1260;75822;-63
2024/04/08 00:14:18;;;;;;;15.70;10.40;;;;;;;11.04;75.02;101363.59;108257;1259;64439;-64
2024/04/08 00:16:45;;;;;;;14.40;9.70;;;;;;;11.03;75.14;101364.77;108062;1261;138957;-66
2024/04/08 00:19:11;;;;;;;12.90;9.70;;;;;;;11.02;75.28;101362.63;108233;1261;58975;-64
2024/04/08 00:21:38;;;;;;;16.00;10.20;;;;;;;11.00;75.31;101357.65;107862;1266;140306;-67
2024/04/08 00:24:05;;;;;;;14.00;9.70;;;;;;;10.98;75.29;101365.13;108489;1260;74866;-66
2024/04/08 00:26:31;;;;;;;13.20;8.70;;;;;;;10.96;75.36;101369.96;108027;1260;67534;-67
2024/04/08 00:28:58;;;;;;;15.60;9.10;;;;;;;10.95;75.37;101372.56;107680;1260;138707;-64
2024/04/08 00:31:24;;;;;;;12.10;8.40;;;;;;;10.91;75.42;101372.27;107951;1265;60470;-66
2024/04/08 00:33:51;;;;;;;15.10;8.10;;;;;;;10.91;75.50;101373.48;108432;1260;139385;-66
2024/04/08 00:36:18;;;;;;;14.10;7.60;;;;;;;10.89;75.45;101373.95;108631;1262;75669;-66
2024/04/08 00:38:44;;;;;;;14.60;8.00;;;;;;;10.86;75.51;101373.16;108509;1259;66073;-66
2024/04/08 00:41:11;;;;;;;13.60;7.10;;;;;;;10.85;75.59;101372.43;108209;1260;138609;-65
2024/04/08 00:43:37;;;;;;;14.40;8.10;;;;;;;10.83;75.60;101370.77;108307;1260;58984;-64
2024/04/08 00:46:04;;;;;;;11.60;7.90;;;;;;;10.80;75.62;101367.50;108189;1259;139471;-63
2024/04/08 00:48:31;;;;;;;13.00;8.40;;;;;;;10.76;75.58;101367.20;108373;1260;73334;-64
2024/04/08 00:50:57;;;;;;;11.20;7.50;;;;;;;10.72;75.63;101369.69;108712;1260;66914;-65
2024/04/08 00:53:24;;;;;;;11.30;7.50;;;;;;;10.69;75.79;101369.61;108479;1260;138992;-64
2024/04/08 00:55:51;;;;;;;16.20;8.30;;;;;;;10.68;75.75;101364.99;108108;1260;59562;-63
2024/04/08 00:58:18;;;;;;;13.70;8.00;;;;;;;10.65;75.82;101364.90;108118;1260;140189;-63
2024/04/08 01:00:45;;;;;;;13.40;7.70;;;;;;;10.64;75.88;101362.55;108118;1260;75132;-62
2024/04/08 01:03:11;;;;;;;16.00;7.90;;;;;;;10.61;75.99;101362.31;107985;1259;140706;-63
2024/04/08 01:05:38;;;;;;;11.30;8.00;;;;;;;10.59;76.02;101366.80;108620;1264;72991;-62
2024/04/08 01:08:06;;;;;;;12.90;7.70;;;;;;;10.58;75.96;101365.17;108587;1263;59035;-63
2024/04/08 01:10:33;;;;;;;14.40;7.90;;;;;;;10.56;76.06;101359.48;108004;1260;139040;-63
2024/04/08 01:12:59;;;;;;;12.40;8.10;;;;;;;10.55;76.17;101354.03;108198;1260;73974;-62
2024/04/08 01:15:26;;;;;;;10.50;7.80;;;;;;;10.57;76.38;101353.55;108048;1260;139563;-62
2024/04/08 01:17:53;;;;;;;11.90;7.40;;;;;;;10.58;76.37;101353.40;108083;1260;71876;-63
2024/04/08 01:20:19;;;;;;;15.30;8.70;;;;;;;10.57;76.46;101353.92;108707;1260;59570;-63
2024/04/08 01:22:46;;;;;;;14.80;9.10;;;;;;;10.57;76.44;101351.27;108617;1260;139149;-63
2024/04/08 01:25:12;;;;;;;12.90;8.70;;;;;;;10.56;76.58;101351.43;108546;1260;74463;-64
2024/04/08 01:27:39;;;;;;;15.20;8.50;;;;;;;10.57;76.56;101351.64;108496;1260;140615;-64
2024/04/08 01:30:06;;;;;;;15.20;8.10;;;;;;;10.59;76.59;101346.23;108587;1261;73446;-64
2024/04/08 01:32:33;;;;;;;12.80;7.70;;;;;;;10.60;76.62;101348.73;108625;1260;59058;-63
2024/04/08 01:35:00;;;;;;;12.60;8.20;;;;;;;10.58;76.64;101347.80;108649;1260;138977;-62
2024/04/08 01:37:26;;;;;;;11.50;8.10;;;;;;;10.57;76.70;101343.74;108734;1260;74918;-63
2024/04/08 01:39:53;;;;;;;14.10;8.30;;;;;;;10.58;76.78;101341.31;108665;1260;138659;-63
2024/04/08 01:42:19;;;;;;;13.60;8.00;;;;;;;10.58;76.79;101334.45;108463;1260;72885;-63
2024/04/08 01:44:46;;;;;;;11.60;7.40;;;;;;;10.55;76.75;101335.05;108240;1260;60093;-64
2024/04/08 01:47:13;;;;;;;14.20;7.80;;;;;;;10.54;76.84;101333.44;108223;1260;139112;-62
2024/04/08 01:49:39;;;;;;;10.40;7.60;;;;;;;10.53;77.01;101333.78;108208;1260;72512;-64
2024/04/08 01:52:06;;;;;;;14.30;7.90;;;;;;;10.55;77.12;101329.60;108485;1260;139333;-65
2024/04/08 01:54:33;;;;;;;14.20;7.70;;;;;;;10.55;76.99;101330.67;108760;1260;71582;-64
2024/04/08 01:56:59;;;;;;;11.80;7.30;;;;;;;10.53;76.99;101326.92;108688;1260;59256;-64
2024/04/08 01:59:26;;;;;;;13.00;7.50;;;;;;;10.52;77.03;101316.70;108553;1264;138541;-64
2024/04/08 02:01:52;;;;;;;15.80;8.70;;;;;;;10.52;77.12;101314.42;108759;1260;74642;-64
2024/04/08 02:04:19;;;;;;;11.30;8.10;;;;;;;10.52;77.20;101318.13;108552;1260;138861;-64
2024/04/08 02:06:46;;;;;;;14.30;8.10;;;;;;;10.54;77.09;101319.23;108653;1260;73691;-64
2024/04/08 02:09:12;;;;;;;16.10;8.70;;;;;;;10.54;77.16;101315.02;108155;1261;138844;-62
2024/04/08 02:11:39;;;;;;;14.60;8.40;;;;;;;10.53;77.17;101317.61;108275;1260;60169;-63
2024/04/08 02:14:06;;;;;;;13.00;8.10;;;;;;;10.51;77.06;101317.21;108309;1260;73512;-62
2024/04/08 02:16:32;;;;;;;13.00;7.30;;;;;;;10.48;77.11;101319.74;108078;1260;138962;-63
2024/04/08 02:18:59;;;;;;;15.90;8.00;;;;;;;10.46;77.15;101314.05;108763;1260;72493;-63
2024/04/08 02:21:25;;;;;;;11.80;7.80;;;;;;;10.47;77.20;101305.49;108505;1260;139192;-63
2024/04/08 02:23:52;;;;;;;13.80;7.90;;;;;;;10.49;77.36;101298.89;108233;1260;59168;-63
2024/04/08 02:26:21;;;;;;;16.50;8.10;;;;;;;10.50;77.35;101291.40;108482;1260;75848;-67
2024/04/08 02:28:47;;;;;;;13.70;7.00;;;;;;;10.51;77.37;101288.06;108452;1260;138726;-67
2024/04/08 02:31:14;;;;;;;10.90;7.20;;;;;;;10.49;77.34;101289.78;108425;1260;244097;-67
2024/04/08 02:33:41;;;;;;;11.90;7.00;;;;;;;10.47;77.30;101296.90;108717;1261;139084;-66
2024/04/08 02:36:07;;;;;;;12.70;7.50;;;;;;;10.45;77.23;101296.98;108737;1260;60701;-63
2024/04/08 02:38:34;;;;;;;12.90;8.30;;;;;;;10.42;77.20;101296.39;108714;1260;74742;-63
2024/04/08 02:41:00;;;;;;;13.00;7.90;;;;;;;10.40;77.26;101297.68;108342;1260;139046;-63
2024/04/08 02:43:27;;;;;;;12.70;7.80;;;;;;;10.36;77.13;101301.22;108278;1259;72402;-63
2024/04/08 02:45:54;;;;;;;10.20;6.70;;;;;;;10.32;77.23;101302.70;108190;1260;138742;-63
2024/04/08 02:48:20;;;;;;;16.10;7.10;;;;;;;10.30;77.33;101316.99;108580;1260;59004;-67
2024/04/08 02:50:47;;;;;;;11.80;7.50;;;;;;;10.29;77.36;101315.88;108653;1260;75090;-67
2024/04/08 02:53:14;;;;;;;16.40;8.00;;;;;;;10.27;77.28;101320.91;108559;1260;138837;-67
2024/04/08 02:55:40;;;;;;;11.10;7.20;;;;;;;10.25;77.33;101323.80;108819;1260;70912;-66
2024/04/08 02:58:07;;;;;;;12.60;6.90;;;;;;;10.22;77.30;101324.57;108563;1260;138773;-67
2024/04/08 03:00:43;;;;;;;16.90;6.40;;;;;;;10.22;77.48;101327.38;108644;1260;61657;-66
2024/04/08 03:03:09;;;;;;;10.70;6.50;;;;;;;10.23;77.67;101325.48;108460;1260;139494;-66
2024/04/08 03:05:36;;;;;;;12.30;6.20;;;;;;;10.27;77.75;101323.35;108540;1260;65954;-66
2024/04/08 03:08:03;;;;;;;9.50;5.90;;;;;;;10.32;77.85;101314.27;108852;1259;58972;-67
2024/04/08 03:10:30;;;;;;;14.40;7.10;;;;;;;10.37;77.98;101303.04;108733;1260;139392;-67
2024/04/08 03:12:56;;;;;;;9.20;6.20;;;;;;;10.43;78.04;101292.02;108837;1260;61585;-67
2024/04/08 03:15:23;;;;;;;11.30;6.10;;;;;;;10.47;78.08;101279.67;108652;1260;139071;-66
2024/04/08 03:17:50;;;;;;;13.70;6.50;;;;;;;10.53;78.13;101281.11;108869;1260;59141;-67
2024/04/08 03:20:16;;;;;;;8.00;5.90;;;;;;;10.61;78.10;101278.22;108813;1260;74213;-66
2024/04/08 03:22:43;;;;;;;14.00;6.10;;;;;;;10.67;78.10;101281.76;108568;1260;138650;-67
2024/04/08 03:25:10;;;;;;;11.00;5.70;;;;;;;10.72;78.06;101279.65;108460;1260;61443;-67
2024/04/08 03:27:38;;;;;;;9.80;6.00;;;;;;;10.77;78.11;101270.33;108132;1260;139219;-67
2024/04/08 03:30:05;;;;;;;10.40;5.80;;;;;;;10.82;78.01;101270.33;108586;1260;67551;-67
2024/04/08 03:32:32;;;;;;;8.70;5.60;;;;;;;10.85;78.06;101274.98;108672;1261;72967;-68
2024/04/08 03:34:58;;;;;;;10.90;5.20;;;;;;;10.89;77.94;101274.77;108624;1260;138982;-68
2024/04/08 03:37:26;;;;;;;9.70;5.40;;;;;;;10.94;78.05;101272.98;108863;1259;60253;-68
2024/04/08 03:39:52;;;;;;;10.40;6.00;;;;;;;10.98;77.81;101276.44;108742;1260;138648;-68
2024/04/08 03:42:21;;;;;;;14.00;5.80;;;;;;;11.00;77.77;101274.23;108629;1260;67648;-68
2024/04/08 03:44:48;;;;;;;11.10;5.50;;;;;;;11.03;77.74;101283.97;108577;1260;73658;-68
2024/04/08 03:47:15;;;;;;;11.30;5.30;;;;;;;11.06;77.84;101284.07;108414;1259;138813;-66
2024/04/08 03:49:42;;;;;;;11.20;4.80;;;;;;;11.09;77.77;101285.94;108597;1260;59025;-66
2024/04/08 03:52:08;;;;;;;13.70;5.40;;;;;;;11.15;77.86;101279.25;108691;1260;139182;-66
2024/04/08 03:54:35;;;;;;;10.00;5.40;;;;;;;11.22;77.85;101277.17;108789;1260;67326;-67
2024/04/08 03:57:02;;;;;;;8.30;4.90;;;;;;;11.27;77.79;101272.96;108710;1260;73524;-66
2024/04/08 03:59:28;;;;;;;12.70;5.30;;;;;;;11.31;77.57;101269.20;108119;1260;60338;-66
2024/04/08 04:01:55;;;;;;;11.30;5.60;;;;;;;11.34;77.60;101273.84;108698;1259;60491;-67
2024/04/08 04:04:21;;;;;;;14.90;5.10;;;;;;;11.36;77.51;101275.16;108443;1260;138921;-68
2024/04/08 04:06:48;;;;;;;12.90;5.40;;;;;;;11.38;77.38;101274.85;108456;1259;66439;-68
2024/04/08 04:09:14;;;;;;;10.50;5.80;;;;;;;11.38;77.27;101265.19;108128;1260;138637;-67
2024/04/08 04:11:41;;;;;;;8.80;4.80;;;;;;;11.38;77.34;101263.63;108635;1260;60269;-68
2024/04/08 04:14:08;;;;;;;7.80;5.40;;;;;;;11.42;77.33;101263.02;108646;1259;60605;-62
2024/04/08 04:16:35;;;;;;;10.70;4.90;;;;;;;11.45;77.42;101262.79;108627;1259;138780;-63
2024/04/08 04:19:01;;;;;;;10.10;5.50;;;;;;;11.48;77.23;101259.17;108717;1260;67499;-63
2024/04/08 04:21:28;;;;;;;10.70;5.40;;;;;;;11.52;77.23;101264.91;108471;1262;139363;-63
2024/04/08 04:23:54;;;;;;;12.00;5.40;;;;;;;11.57;77.24;101266.29;108667;1260;59062;-63
2024/04/08 04:26:21;;;;;;;15.20;5.20;;;;;;;11.62;77.19;101265.73;108675;1260;61885;-63
2024/04/08 04:28:47;;;;;;;11.60;5.70;;;;;;;11.65;76.96;101269.34;108562;1260;138262;-62
2024/04/08 04:31:14;;;;;;;16.20;6.00;;;;;;;11.69;76.99;101271.20;108807;1260;59135;-63
2024/04/08 04:33:40;;;;;;;12.40;5.80;;;;;;;11.76;76.96;101271.04;108644;1260;139323;-64
2024/04/08 04:36:07;;;;;;;13.40;5.70;;;;;;;11.84;76.84;101269.52;108754;1260;59775;-64
2024/04/08 04:38:34;;;;;;;9.60;5.30;;;;;;;11.93;76.79;101261.52;108217;1259;60317;-64
2024/04/08 04:41:04;;;;;;;13.90;6.70;;;;;;;11.99;76.61;101260.81;108123;1260;140345;-63
2024/04/08 04:43:32;;;;;;;15.10;7.20;;;;;;;12.04;76.50;101267.64;108382;1260;65180;-63
2024/04/08 04:45:58;;;;;;;10.50;6.50;;;;;;;12.07;76.39;101267.37;108362;1260;138893;-64
2024/04/08 04:48:25;;;;;;;16.30;6.30;;;;;;;12.11;76.28;101272.41;108684;1259;58955;-63
2024/04/08 04:50:52;;;;;;;10.00;5.60;;;;;;;12.12;76.08;101275.77;108610;1260;59418;-63
2024/04/08 04:53:18;;;;;;;16.30;5.20;;;;;;;12.16;76.12;101280.27;108626;1260;138037;-62
2024/04/08 04:55:53;;;;;;;14.50;5.80;;;;;;;12.20;75.96;101286.19;108767;1259;65625;-63
2024/04/08 04:58:21;;;;;;;14.20;5.40;;;;;;;12.25;75.96;101294.95;108517;1259;138849;-63
2024/04/08 05:00:48;;;;;;;11.90;5.70;;;;;;;12.28;75.69;101300.81;108738;1260;59293;-64
2024/04/08 05:03:21;;;;;;;15.40;5.40;;;;;;;12.25;75.52;101299.52;108561;1260;138378;-63
2024/04/08 05:05:55;;;;;;;11.40;5.70;;;;;;;12.28;75.57;101301.00;108694;1260;75609;-64
2024/04/08 05:08:23;;;;;;;10.80;5.40;;;;;;;12.31;75.42;101300.73;108253;1263;66469;-64
2024/04/08 05:10:50;;;;;;;9.10;5.30;;;;;;;12.34;75.27;101302.91;108263;1260;140667;-65
2024/04/08 05:13:18;;;;;;;6.20;4.30;;;;;;;12.37;75.24;101301.60;108749;1260;59373;-67
2024/04/08 05:16:00;;;;;;;12.90;5.40;;;;;;;12.41;75.04;101300.27;108524;1260;139314;-70
2024/04/08 05:18:28;;;;;;;12.40;4.60;;;;;;;12.45;74.93;101301.10;108664;1260;75011;-68
2024/04/08 05:20:58;;;;;;;12.10;4.10;;;;;;;12.52;74.90;101306.04;108769;1260;65282;-68
2024/04/08 05:23:28;;;;;;;7.80;4.40;;;;;;;12.62;74.86;101313.33;108599;1260;138667;-68
2024/04/08 05:25:54;;;;;;;7.50;4.40;;;;;;;12.72;74.77;101319.58;108605;1267;59210;-68
2024/04/08 05:28:21;;;;;;;9.80;4.30;;;;;;;12.81;74.63;101320.69;108568;1260;138368;-68
2024/04/08 05:30:48;;;;;;;8.70;4.10;;;;;;;12.88;74.32;101315.76;108573;1260;75925;-68
2024/04/08 05:33:15;;;;;;;10.20;4.20;;;;;;;12.94;74.06;101315.88;108425;1260;138257;-68
2024/04/08 05:35:43;;;;;;;10.60;4.20;;;;;;;13.01;73.94;101312.55;108557;1260;72769;-68
2024/04/08 05:38:10;;;;;;;19.30;6.30;;;;;;;13.11;73.96;101306.44;108680;1260;59069;-68
2024/04/08 05:40:37;;;;;;;8.90;4.00;;;;;;;13.20;73.58;101300.48;108620;1260;138910;-68
2024/04/08 05:43:04;;;;;;;11.20;3.90;;;;;;;13.30;73.49;101300.02;108670;1260;73649;-69
2024/04/08 05:45:31;;;;;;;12.30;5.50;;;;;;;13.42;73.35;101296.76;108627;1260;139188;-69
2024/04/08 05:47:58;;;;;;;15.40;4.30;;;;;;;13.51;73.29;101289.91;108619;1260;71487;-69
2024/04/08 05:50:24;;;;;;;10.70;4.50;;;;;;;13.61;73.07;101281.31;108736;1262;59633;-68
2024/04/08 05:52:51;;;;;;;11.90;4.20;;;;;;;13.71;72.94;101280.11;108588;1260;138700;-67
2024/04/08 05:55:18;;;;;;;11.40;3.90;;;;;;;13.82;72.78;101280.16;108769;1260;74802;-69
2024/04/08 05:57:45;;;;;;;7.70;3.50;;;;;;;13.93;72.60;101275.08;108514;1260;138599;-65
2024/04/08 06:00:12;;;;;;;9.20;3.90;;;;;;;14.03;72.53;101257.81;108734;1260;72548;-65
2024/04/08 06:02:39;;;;;;;6.90;3.50;;;;;;;14.15;72.60;101253.09;108704;1260;59741;-65
2024/04/08 06:05:08;;;;;;;6.90;3.70;;;;;;;14.26;72.40;101247.64;108500;1260;137601;-65
2024/04/08 06:07:34;;;;;;;8.80;3.60;;;;;;;14.35;72.15;101241.79;108736;1260;75261;-65
2024/04/08 06:10:01;;;;;;;6.70;3.80;;;;;;;14.42;71.90;101242.80;108670;1260;138349;-65
2024/04/08 06:12:27;;;;;;;12.20;4.20;;;;;;;14.46;71.72;101242.52;108655;1259;71597;-65
2024/04/08 06:14:54;;;;;;;11.70;5.20;;;;;;;14.47;71.50;101232.46;108591;1260;59373;-65
2024/04/08 06:17:21;;;;;;;9.40;3.70;;;;;;;14.47;71.35;101224.86;108551;1260;138497;-65
2024/04/08 06:19:48;;;;;;;6.40;3.80;;;;;;;14.48;71.17;101206.17;108780;1260;75629;-69
2024/04/08 06:22:15;;;;;;;9.90;4.40;;;;;;;14.47;71.04;101187.60;108711;1260;137998;-70
2024/04/08 06:24:42;;;;;;;10.30;4.50;;;;;;;14.47;70.58;101171.71;108735;1260;71938;-70
2024/04/08 06:27:08;;;;;;;22.30;11.40;;;;;;;14.48;70.55;101157.08;108631;1263;138071;-70
2024/04/08 06:29:35;;;;;;;28.30;11.60;;;;;;;14.46;70.51;101145.39;108609;1260;63978;-70
2024/04/08 06:32:01;;;;;;;17.80;11.00;;;;;;;14.41;70.26;101128.18;108746;1260;73481;-70
2024/04/08 06:34:28;;;;;;;16.60;9.90;;;;;;;14.34;70.17;101131.59;108654;1260;139385;-70
2024/04/08 06:36:55;;;;;;;19.90;10.50;;;;;;;14.33;70.20;101137.95;108769;1260;72763;-70
2024/04/08 06:39:21;;;;;;;17.30;9.50;;;;;;;14.33;70.02;101139.36;108655;1260;139207;-69
2024/04/08 06:41:48;;;;;;;12.20;8.30;;;;;;;14.35;69.86;101165.34;108781;1260;59198;-70
2024/04/08 06:44:15;;;;;;;12.30;8.00;;;;;;;14.38;69.75;101187.98;108774;1260;73926;-64
2024/04/08 06:46:41;;;;;;;7.50;5.40;;;;;;;14.45;69.78;101195.88;108653;1260;138603;-64
2024/04/08 06:49:09;;;;;;;17.60;7.80;;;;;;;14.59;69.56;101203.00;108805;1260;73261;-63
2024/04/08 06:51:36;;;;;;;13.30;5.80;;;;;;;14.73;69.49;101212.23;108641;1260;138453;-64
2024/04/08 06:54:02;;;;;;;21.90;9.20;;;;;;;14.85;69.37;101217.54;108780;1260;58997;-65
2024/04/08 06:56:29;;;;;;;28.30;13.90;;;;;;;14.95;69.10;101223.52;108797;1260;76178;-64
2024/04/08 06:58:55;;;;;;;18.20;8.10;;;;;;;14.98;68.91;101226.92;108683;1260;138148;-64
2024/04/08 07:01:22;;;;;;;15.60;6.60;;;;;;;15.00;68.57;101241.96;108799;1260;72802;-64
2024/04/08 07:03:48;;;;;;;27.80;13.50;;;;;;;15.01;68.48;101250.66;108571;1260;138231;-65
2024/04/08 07:06:15;;;;;;;22.90;6.90;;;;;;;15.03;68.39;101249.61;108814;1260;58974;-66
2024/04/08 07:08:42;;;;;;;10.90;5.40;;;;;;;15.06;68.31;101259.75;108779;1260;75902;-64
2024/04/08 07:11:08;;;;;;;18.80;9.50;;;;;;;15.12;68.14;101267.08;108691;1260;138138;-64
2024/04/08 07:13:36;;;;;;;27.20;12.80;;;;;;;15.21;68.06;101264.72;108796;1259;73450;-64
2024/04/08 07:16:03;;;;;;;15.20;6.50;;;;;;;15.35;68.09;101257.33;108671;1260;139118;-64
2024/04/08 07:18:30;;;;;;;16.90;8.10;;;;;;;15.48;67.97;101255.71;108760;1260;61552;-64
2024/04/08 07:20:56;;;;;;;13.60;5.70;;;;;;;15.62;67.72;101254.65;108770;1260;74642;-64
2024/04/08 07:23:23;;;;;;;10.80;5.30;;;;;;;15.68;67.18;101258.09;108619;1260;137925;-64
2024/04/08 07:25:51;;;;;;;13.60;5.40;;;;;;;15.70;66.83;101253.69;108759;1260;72760;-64
2024/04/08 07:28:18;;;;;;;14.80;7.60;;;;;;;15.76;66.70;101252.73;108673;1260;138866;-64
2024/04/08 07:30:44;;;;;;;10.50;5.80;;;;;;;15.86;66.41;101253.02;108590;1260;61748;-65
2024/04/08 07:33:11;;;;;;;11.00;6.20;;;;;;;15.97;66.13;101254.21;108642;1260;138909;-65
2024/04/08 07:35:38;;;;;;;13.30;7.30;;;;;;;16.10;65.96;101258.95;108789;1260;66414;-65
2024/04/08 07:38:04;;;;;;;15.20;7.70;;;;;;;16.21;65.74;101264.90;108765;1260;60045;-65
2024/04/08 07:40:31;;;;;;;15.70;7.40;;;;;;;16.35;65.50;101274.61;108690;1260;138368;-65
2024/04/08 07:42:58;;;;;;;12.50;6.40;;;;;;;16.46;65.24;101282.16;108780;1260;59848;-65
2024/04/08 07:45:24;;;;;;;12.60;6.00;;;;;;;16.53;64.82;101287.36;108646;1260;138589;-65
2024/04/08 07:47:51;;;;;;;8.50;5.40;;;;;;;16.63;64.74;101285.85;108789;1260;66502;-65
2024/04/08 07:50:18;;;;;;;11.70;4.70;;;;;;;16.71;64.53;101277.05;108771;1260;70736;-65
2024/04/08 07:52:44;;;;;;;7.20;3.70;;;;;;;16.77;64.26;101268.95;108662;1261;138300;-65
2024/04/08 07:55:11;;;;;;;6.60;3.00;;;;;;;16.83;64.16;101257.85;108804;1260;59788;-65
2024/04/08 07:57:37;;;;;;;7.90;2.80;;;;;;;16.89;63.88;101256.66;108619;1260;138524;-65
2024/04/08 08:00:04;;;;;;;4.70;2.90;;;;;;;16.98;63.64;101255.84;108789;1260;67553;-65
2024/04/08 08:02:31;;;;;;;5.90;2.50;;;;;;;17.10;63.39;101245.46;108774;1260;73724;-65
2024/04/08 08:04:57;;;;;;;7.90;2.70;;;;;;;17.23;63.22;101236.84;108667;1260;137995;-65
2024/04/08 08:07:24;;;;;;;4.40;2.70;;;;;;;17.33;62.70;101239.91;108838;1260;59817;-65
2024/04/08 08:09:50;;;;;;;7.10;3.40;;;;;;;17.41;62.46;101239.77;108655;1260;138025;-65
2024/04/08 08:12:20;;;;;;;8.40;3.40;;;;;;;17.48;62.17;101237.66;108714;1260;66487;-65
2024/04/08 08:14:46;;;;;;;7.60;3.20;;;;;;;17.58;61.89;101236.28;108659;1260;72815;-65
2024/04/08 08:17:13;;;;;;;6.10;2.90;;;;;;;17.68;61.79;101224.97;108651;1260;137953;-64
2024/04/08 08:19:39;;;;;;;4.70;3.00;;;;;;;17.79;61.51;101215.41;108775;1262;60049;-66
2024/04/08 08:22:06;;;;;;;6.60;2.70;;;;;;;17.88;61.03;101205.89;108678;1260;137775;-66
2024/04/08 08:24:33;;;;;;;4.10;2.40;;;;;;;17.95;60.69;101197.36;108771;1260;65126;-65
2024/04/08 08:27:00;;;;;;;7.80;2.90;;;;;;;18.02;60.38;101196.15;108759;1260;74043;-66
2024/04/08 08:29:27;;;;;;;7.20;3.00;;;;;;;18.12;60.00;101192.42;108574;1260;138682;-66
2024/04/08 08:31:53;;;;;;;6.00;3.10;;;;;;;18.20;59.74;101185.52;108798;1260;60483;-66
2024/04/08 08:34:20;;;;;;;9.50;3.10;;;;;;;18.26;59.37;101170.23;108714;1260;138215;-66
2024/04/08 08:36:48;;;;;;;5.00;3.20;;;;;;;18.31;59.15;101164.90;108809;1260;65106;-66
2024/04/08 08:39:15;;;;;;;11.40;4.60;;;;;;;18.38;59.01;101153.70;108658;1260;138383;-64
2024/04/08 08:41:42;;;;;;;7.70;3.80;;;;;;;18.46;58.87;101147.83;108677;1261;60062;-66
2024/04/08 08:44:10;;;;;;;6.20;3.10;;;;;;;18.51;58.65;101141.27;108761;1260;60352;-65
2024/04/08 08:46:36;;;;;;;9.30;3.60;;;;;;;18.54;58.51;101130.04;108692;1260;138019;-65
2024/04/08 08:49:03;;;;;;;6.50;3.10;;;;;;;18.59;58.42;101131.64;108776;1260;65399;-65
2024/04/08 08:51:29;;;;;;;7.10;2.80;;;;;;;18.65;58.08;101135.55;108678;1260;138643;-65
2024/04/08 08:53:56;;;;;;;7.30;2.80;;;;;;;18.70;58.08;101144.77;108766;1260;59710;-65
2024/04/08 08:56:22;;;;;;;5.10;3.20;;;;;;;18.80;57.79;101154.20;108817;1260;59815;-65
2024/04/08 08:58:53;;;;;;;4.30;2.60;;;;;;;18.93;57.64;101153.81;108563;1260;138622;-65
2024/04/08 09:01:20;;;;;;;4.50;2.70;;;;;;;19.12;57.43;101144.67;108740;1260;66731;-71
2024/04/08 09:03:46;;;;;;;7.20;2.90;;;;;;;19.32;57.24;101132.84;108642;1260;139116;-70
2024/04/08 09:06:14;;;;;;;3.70;2.10;;;;;;;19.51;57.09;101125.45;108694;1260;59988;-71
2024/04/08 09:08:40;;;;;;;4.20;2.40;;;;;;;19.60;56.63;101121.29;108779;1260;59722;-65
2024/04/08 09:11:07;;;;;;;4.70;3.30;;;;;;;19.69;56.41;101118.92;108562;1260;138599;-65
2024/04/08 09:13:34;;;;;;;6.50;3.40;;;;;;;19.78;56.06;101112.13;108799;1260;67310;-65
2024/04/08 09:16:00;;;;;;;4.30;2.10;;;;;;;19.86;55.80;101108.50;108635;1261;138545;-65
2024/04/08 09:18:27;;;;;;;3.10;2.00;;;;;;;19.95;55.48;101109.15;108755;1260;59831;-70
2024/04/08 09:20:53;;;;;;;5.50;2.70;;;;;;;19.99;55.14;101105.37;108751;1260;59988;-70
2024/04/08 09:23:20;;;;;;;4.70;2.40;;;;;;;20.03;55.00;101108.55;108618;1260;139023;-71
2024/04/08 09:25:46;;;;;;;6.20;2.60;;;;;;;20.05;54.88;101102.84;108799;1260;66265;-70
2024/04/08 09:28:13;;;;;;;6.80;2.20;;;;;;;20.20;55.11;101099.14;108663;1260;138132;-70
2024/04/08 09:30:41;;;;;;;7.40;1.90;;;;;;;20.39;54.99;101096.82;108754;1260;60007;-70
2024/04/08 09:33:09;;;;;;;4.50;2.60;;;;;;;20.62;55.11;101091.23;108548;1260;138323;-69
2024/04/08 09:35:39;;;;;;;4.80;2.30;;;;;;;20.86;54.77;101090.09;108675;1260;75552;-70
2024/04/08 09:38:07;;;;;;;2.90;1.70;;;;;;;21.03;54.44;101089.70;108788;1260;68550;-70
2024/04/08 09:40:34;;;;;;;3.70;2.20;;;;;;;21.12;54.08;101094.40;108616;1260;138422;-71
2024/04/08 09:43:02;;;;;;;6.10;2.00;;;;;;;21.21;54.12;101094.48;108656;1260;59931;-65
2024/04/08 09:45:29;;;;;;;3.20;2.40;;;;;;;21.27;53.99;101089.55;108551;1260;138219;-64
2024/04/08 09:47:56;;;;;;;4.50;2.30;;;;;;;21.33;53.82;101086.62;108627;1260;74367;-64
2024/04/08 09:50:26;;;;;;;3.70;2.30;;;;;;;21.34;53.57;101090.36;108759;1260;66231;-65
2024/04/08 09:52:52;;;;;;;4.30;2.20;;;;;;;21.37;53.50;101095.67;108591;1260;138086;-64
2024/04/08 09:55:19;;;;;;;4.30;1.80;;;;;;;21.45;53.56;101090.58;108789;1260;59665;-66
2024/04/08 09:57:47;;;;;;;4.00;2.20;;;;;;;21.52;53.12;101084.77;108551;1260;139008;-65
2024/04/08 10:00:15;;;;;;;5.50;2.00;;;;;;;21.56;52.96;101073.98;108614;1260;75825;-66
2024/04/08 10:02:45;;;;;;;4.90;2.20;;;;;;;21.59;52.87;101066.98;108772;1260;65925;-66
2024/04/08 10:05:13;;;;;;;4.90;2.00;;;;;;;21.59;52.76;101062.16;108631;1260;139051;-65
2024/04/08 10:07:40;;;;;;;5.40;2.30;;;;;;;21.62;52.66;101057.46;108728;1260;59742;-65
2024/04/08 10:10:07;;;;;;;6.10;2.10;;;;;;;21.65;52.57;101071.00;108556;1261;138544;-65
2024/04/08 10:12:35;;;;;;;2.30;1.70;;;;;;;21.63;52.57;101066.77;108680;1260;75732;-65
2024/04/08 10:15:31;;;;;;;6.20;2.10;;;;;;;21.60;52.66;101072.69;108780;1260;65729;-64
2024/04/08 10:17:57;;;;;;;3.10;2.20;;;;;;;21.53;52.47;101074.40;108742;1260;73759;-66
2024/04/08 10:20:24;;;;;;;4.90;1.90;;;;;;;21.41;52.22;101059.39;108765;1260;59960;-66
2024/04/08 10:22:51;;;;;;;4.60;2.30;;;;;;;21.23;52.20;101045.20;108562;1260;138083;-66
2024/04/08 10:25:37;;;;;;;5.40;2.30;;;;;;;21.09;52.31;101054.83;108601;1260;75570;-66
2024/04/08 10:28:07;;;;;;;4.40;2.60;;;;;;;20.95;52.59;101070.53;108671;1260;138761;-66
2024/04/08 10:30:34;;;;;;;5.80;2.40;;;;;;;20.89;53.01;101058.66;108773;1260;72538;-64
2024/04/08 10:33:01;;;;;;;5.10;2.60;;;;;;;20.86;52.95;101050.14;108687;1260;59785;-65
2024/04/08 10:35:27;;;;;;;6.10;2.90;;;;;;;20.80;53.02;101037.90;108678;1260;138612;-65
2024/04/08 10:37:54;;;;;;;4.00;2.80;;;;;;;20.77;53.12;101026.71;108856;1260;76212;-66
2024/04/08 10:40:21;;;;;;;7.30;2.90;;;;;;;20.75;53.24;101014.60;108690;1260;138127;-66
2024/04/08 10:42:47;;;;;;;5.40;2.50;;;;;;;20.71;53.35;100987.91;108788;1260;72030;-65
2024/04/08 10:45:14;;;;;;;4.90;3.70;;;;;;;20.65;53.22;100979.08;108560;1260;138117;-65
2024/04/08 10:47:41;;;;;;;6.20;3.00;;;;;;;20.61;53.16;100986.43;108796;1264;60009;-65
2024/04/08 10:50:08;;;;;;;4.60;2.50;;;;;;;20.65;53.55;101014.55;108785;1259;75756;-65
2024/04/08 10:52:36;;;;;;;4.90;2.70;;;;;;;20.76;53.67;101042.23;108694;1260;138161;-65
2024/04/08 10:55:04;;;;;;;5.70;3.30;;;;;;;20.95;53.88;101039.33;108683;1260;71718;-70
2024/04/08 10:57:30;;;;;;;7.60;3.80;;;;;;;21.14;53.70;101028.35;108634;1260;138370;-69
2024/04/08 10:59:57;;;;;;;9.60;3.80;;;;;;;21.31;53.84;101020.09;108768;1260;59743;-70
2024/04/08 11:02:23;;;;;;;7.00;2.80;;;;;;;21.42;53.59;101007.05;108748;1260;74762;-70
2024/04/08 11:04:49;;;;;;;7.40;3.70;;;;;;;21.49;53.37;101024.99;108572;1262;138186;-71
2024/04/08 11:07:16;;;;;;;5.90;2.90;;;;;;;21.54;53.31;101011.17;108765;1260;59875;-71
2024/04/08 11:09:42;;;;;;;11.70;3.80;;;;;;;21.58;53.05;100995.23;108658;1260;138112;-70